createdAt,value
2022-10-14T00:01:37.692Z,26.58
2022-10-14T00:11:40.487Z,24.08
2022-10-14T00:21:46.702Z,24.35
2022-10-14T00:31:51.648Z,24.73
2022-10-14T00:41:55.646Z,24.92
2022-10-14T00:52:03.126Z,22.52
2022-10-14T01:02:07.586Z,23.63
2022-10-14T01:12:28.665Z,23.27
2022-10-14T01:22:37.986Z,23.65
2022-10-14T01:32:52.842Z,22.60
2022-10-14T01:42:57.380Z,25.02
2022-10-14T01:53:06.086Z,23.63
2022-10-14T02:03:08.805Z,26.30
2022-10-14T02:13:27.190Z,24.80
2022-10-14T02:23:37.424Z,25.15
2022-10-14T02:43:46.159Z,24.00
2022-10-14T02:53:50.086Z,23.67
2022-10-14T03:03:52.690Z,23.65
2022-10-14T03:13:56.655Z,23.30
2022-10-14T03:23:59.242Z,26.10
2022-10-14T03:34:03.532Z,25.67
2022-10-14T03:44:06.350Z,22.20
2022-10-14T03:54:10.491Z,21.52
2022-10-14T04:04:13.083Z,23.10
2022-10-14T04:14:17.062Z,20.33
2022-10-14T04:24:19.697Z,20.05
2022-10-14T04:34:23.654Z,18.60
2022-10-14T04:44:26.271Z,17.20
2022-10-14T04:54:30.739Z,18.55
2022-10-14T05:04:33.379Z,19.60
2022-10-14T05:14:37.346Z,18.38
2022-10-14T05:24:39.969Z,16.30
2022-10-14T05:34:43.917Z,14.27
2022-10-14T05:44:46.998Z,14.02
2022-10-14T05:54:51.010Z,11.40
2022-10-14T06:04:54.128Z,12.55
2022-10-14T06:14:58.108Z,9.98
2022-10-14T06:25:04.264Z,9.85
2022-10-14T06:35:09.739Z,10.63
2022-10-14T06:45:12.320Z,12.30
2022-10-14T06:55:17.526Z,11.73
2022-10-14T07:05:20.171Z,12.35
2022-10-14T07:15:24.359Z,12.02
2022-10-14T07:25:27.000Z,13.85
2022-10-14T07:35:30.957Z,12.20
2022-10-14T07:45:35.828Z,13.23
2022-10-14T07:55:52.104Z,13.32
2022-10-14T08:06:00.251Z,12.55
2022-10-14T08:16:04.494Z,13.48
2022-10-14T08:26:19.576Z,13.02
2022-10-14T08:36:23.944Z,12.82
2022-10-14T08:46:34.302Z,12.20
2022-10-14T08:56:38.759Z,13.35
2022-10-14T09:06:43.864Z,12.50
2022-10-14T09:16:51.945Z,12.60
2022-10-14T09:26:59.381Z,13.02
2022-10-14T09:37:16.608Z,12.82
2022-10-14T09:47:19.495Z,13.57
2022-10-14T09:57:25.760Z,12.13
2022-10-14T10:07:32.045Z,13.65
2022-10-14T10:17:40.499Z,12.88
2022-10-14T10:27:45.618Z,13.20
2022-10-14T10:38:06.589Z,11.52
2022-10-14T10:48:16.501Z,12.27
2022-10-14T11:09:02.451Z,13.63
2022-10-14T11:19:13.903Z,14.55
2022-10-14T11:29:57.783Z,14.45
2022-10-14T11:40:07.914Z,14.07
2022-10-14T11:50:17.956Z,16.50
2022-10-14T12:00:41.896Z,16.90
2022-10-14T12:10:48.691Z,17.10
2022-10-14T12:20:58.712Z,18.10
2022-10-14T12:41:43.526Z,18.80
2022-10-14T12:51:54.592Z,20.05
2022-10-14T13:02:04.308Z,21.13
2022-10-14T13:12:40.874Z,22.88
2022-10-14T13:22:45.402Z,23.75
2022-10-14T13:32:53.298Z,22.83
2022-10-14T13:42:58.867Z,23.15
2022-10-14T13:53:04.586Z,23.73
2022-10-14T14:03:18.476Z,23.33
2022-10-14T14:13:21.624Z,21.85
2022-10-14T14:23:26.114Z,21.33
2022-10-14T14:33:31.487Z,20.88
2022-10-14T14:43:40.854Z,20.05
2022-10-14T14:53:50.957Z,17.77
2022-10-14T15:04:13.039Z,16.42
2022-10-14T15:14:30.752Z,13.98
2022-10-14T15:24:34.715Z,13.65
2022-10-14T15:34:37.440Z,15.18
2022-10-14T15:44:41.379Z,16.05
2022-10-14T15:54:45.786Z,14.00
2022-10-14T16:05:15.016Z,14.93
2022-10-14T16:15:34.659Z,14.63
2022-10-14T16:25:39.896Z,14.55
2022-10-14T16:35:43.744Z,14.80
2022-10-14T16:45:47.683Z,13.85
2022-10-14T16:55:50.338Z,13.20
2022-10-14T17:05:59.494Z,14.07
2022-10-14T17:16:02.390Z,15.47
2022-10-14T17:26:06.964Z,13.75
2022-10-14T17:36:17.687Z,13.65
2022-10-14T17:46:24.707Z,15.88
2022-10-14T17:56:29.151Z,14.85
2022-10-14T18:06:35.604Z,12.50
2022-10-14T18:16:39.819Z,15.07
2022-10-14T18:26:43.764Z,15.23
2022-10-14T18:36:47.790Z,14.10
2022-10-14T18:46:51.787Z,13.95
2022-10-14T18:56:54.758Z,12.05
2022-10-14T19:06:58.697Z,12.27
2022-10-14T19:17:01.361Z,11.15
2022-10-14T19:27:05.639Z,11.13
2022-10-14T19:37:08.213Z,11.90
2022-10-14T19:47:12.616Z,10.93
2022-10-14T19:57:15.184Z,12.32
2022-10-14T20:07:19.215Z,12.82
2022-10-14T20:17:21.886Z,13.85
2022-10-14T20:27:26.184Z,14.15
2022-10-14T20:37:31.514Z,14.05
2022-10-14T20:47:35.756Z,14.55
2022-10-14T20:57:38.675Z,14.93
2022-10-14T21:07:42.631Z,15.05
2022-10-14T21:17:48.763Z,15.32
2022-10-14T21:27:52.766Z,14.43
2022-10-14T21:37:55.400Z,15.63
2022-10-14T21:58:07.032Z,15.05
2022-10-14T22:08:11.183Z,14.63
2022-10-14T22:18:13.751Z,13.27
2022-10-14T22:28:17.785Z,14.75
2022-10-14T22:38:20.396Z,15.30
2022-10-14T22:48:24.439Z,15.25
2022-10-14T22:58:27.373Z,15.02
2022-10-14T23:08:31.979Z,16.67
2022-10-14T23:18:36.155Z,17.42
2022-10-14T23:28:40.924Z,17.92
2022-10-14T23:38:44.515Z,17.50
2022-10-14T23:48:55.843Z,17.27
2022-10-14T23:59:11.540Z,18.15
